Time;durP1;ratioP1;P1;durP2;ratioP2;P2;SDS_P1;SDS_P2;PMS_P1;PMS_P2;Temp;Humidity;BMP_temperature;BMP_pressure;BME280_temperature;BME280_humidity;BME280_pressure;Samples;Min_cycle;Max_cycle;Signal;HPM_P1;HPM_P2
2022/12/16 00:01:07;;;;;;;18.38;12.52;;;-4.70;99.90;;;;;;5073304;28;20221;-60
2022/12/16 00:03:34;;;;;;;22.65;13.77;;;-4.70;99.90;;;;;;5073308;28;20211;-60
2022/12/16 00:06:02;;;;;;;18.48;11.50;;;-4.70;99.90;;;;;;5073352;28;20208;-61
2022/12/16 00:08:32;;;;;;;23.25;13.63;;;-4.70;99.90;;;;;;5073265;28;20197;-61
2022/12/16 00:10:59;;;;;;;26.33;15.48;;;-4.70;99.90;;;;;;5072917;28;20233;-60
2022/12/16 00:13:26;;;;;;;21.83;14.07;;;-4.70;99.90;;;;;;5073236;28;20207;-60
2022/12/16 00:15:53;;;;;;;18.45;12.07;;;-4.70;99.90;;;;;;5073125;28;20213;-60
2022/12/16 00:18:20;;;;;;;20.05;14.07;;;-4.70;99.90;;;;;;5073332;28;20201;-61
2022/12/16 00:20:48;;;;;;;22.60;14.15;;;-4.70;99.90;;;;;;5072674;28;20653;-61
2022/12/16 00:23:15;;;;;;;20.48;13.52;;;-4.70;99.90;;;;;;5073173;28;20201;-60
2022/12/16 00:25:44;;;;;;;18.20;12.43;;;-4.70;99.90;;;;;;5073937;28;20197;-60
2022/12/16 00:28:13;;;;;;;19.48;13.63;;;-4.70;99.90;;;;;;5076889;28;20216;-61
2022/12/16 00:30:41;;;;;;;18.98;13.32;;;-4.80;99.90;;;;;;5077065;28;20217;-61
2022/12/16 00:33:08;;;;;;;25.17;14.45;;;-4.80;99.90;;;;;;5077273;28;20209;-61
2022/12/16 00:35:35;;;;;;;17.73;12.52;;;-4.80;99.90;;;;;;5076797;28;20582;-60
2022/12/16 00:38:02;;;;;;;17.27;12.70;;;-4.80;99.90;;;;;;5077555;28;20201;-60
2022/12/16 00:40:29;;;;;;;21.00;12.50;;;-4.90;99.90;;;;;;5077013;28;20587;-61
2022/12/16 00:42:57;;;;;;;19.33;12.45;;;-4.90;99.90;;;;;;5077056;28;20205;-60
2022/12/16 00:45:24;;;;;;;20.02;12.45;;;-4.90;99.90;;;;;;5076592;28;20679;-61
2022/12/16 00:47:50;;;;;;;21.45;14.45;;;-4.90;99.90;;;;;;5076574;28;20787;-60
2022/12/16 00:50:19;;;;;;;18.45;12.65;;;-4.90;99.90;;;;;;5076762;28;20606;-59
2022/12/16 00:52:46;;;;;;;19.55;12.77;;;-5.00;99.90;;;;;;5077543;28;20197;-60
2022/12/16 00:55:13;;;;;;;22.88;13.68;;;-5.00;99.90;;;;;;5076412;28;20220;-59
2022/12/16 00:57:40;;;;;;;23.13;13.30;;;-4.90;99.90;;;;;;5076727;28;20197;-59
2022/12/16 01:00:11;;;;;;;20.13;13.75;;;-5.00;99.90;;;;;;5076534;28;20222;-59
2022/12/16 01:02:40;;;;;;;21.13;14.27;;;-5.00;99.90;;;;;;5076620;28;20197;-60
2022/12/16 01:05:08;;;;;;;24.75;14.52;;;-5.00;99.90;;;;;;5076506;28;20193;-60
2022/12/16 01:07:35;;;;;;;18.05;12.85;;;-5.00;99.90;;;;;;5076402;28;20565;-59
2022/12/16 01:10:02;;;;;;;18.00;13.82;;;-5.10;99.90;;;;;;5075915;28;20728;-60
2022/12/16 01:12:29;;;;;;;19.85;13.57;;;-5.10;99.90;;;;;;5076371;28;20239;-59
2022/12/16 01:14:56;;;;;;;16.88;12.80;;;-5.10;99.90;;;;;;5075859;28;20701;-59
2022/12/16 01:17:24;;;;;;;21.77;14.75;;;-5.10;99.90;;;;;;5076233;28;20214;-60
2022/12/16 01:19:52;;;;;;;19.35;14.20;;;-5.20;99.90;;;;;;5075864;28;20205;-59
2022/12/16 01:22:18;;;;;;;23.75;13.82;;;-5.20;99.90;;;;;;5076159;28;20206;-60
2022/12/16 01:24:45;;;;;;;23.35;13.20;;;-5.20;99.90;;;;;;5076025;28;20716;-60
2022/12/16 01:27:12;;;;;;;21.25;14.25;;;-5.20;99.90;;;;;;5075837;28;20205;-60
2022/12/16 01:29:39;;;;;;;21.65;13.10;;;-5.20;99.90;;;;;;5076041;28;20197;-60
2022/12/16 01:32:07;;;;;;;19.50;13.85;;;-5.20;99.90;;;;;;5076515;28;20251;-59
2022/12/16 01:34:35;;;;;;;20.60;14.00;;;-5.20;99.90;;;;;;5076239;28;20231;-60
2022/12/16 01:37:02;;;;;;;18.70;12.15;;;-5.20;99.90;;;;;;5075549;28;20197;-61
2022/12/16 01:39:29;;;;;;;20.88;13.25;;;-5.20;99.90;;;;;;5075695;28;20197;-61
2022/12/16 01:41:56;;;;;;;17.95;12.73;;;-5.30;99.90;;;;;;5075918;28;20305;-60
2022/12/16 01:44:25;;;;;;;24.90;14.57;;;-5.30;99.90;;;;;;5076011;28;20205;-60
2022/12/16 01:46:55;;;;;;;21.45;13.48;;;-5.30;99.90;;;;;;5076688;28;20209;-60
2022/12/16 01:49:26;;;;;;;23.60;13.48;;;-5.30;99.90;;;;;;5075862;28;20208;-60
2022/12/16 01:51:59;;;;;;;25.10;13.65;;;-5.40;99.90;;;;;;5075620;28;20231;-60
2022/12/16 01:54:31;;;;;;;18.35;12.63;;;-5.40;99.90;;;;;;5075718;28;20272;-60
2022/12/16 01:57:00;;;;;;;21.90;13.70;;;-5.40;99.90;;;;;;5076125;28;20197;-61
2022/12/16 01:59:31;;;;;;;16.50;12.40;;;-5.40;99.90;;;;;;5075700;28;20552;-59
2022/12/16 02:01:58;;;;;;;21.98;13.23;;;-5.40;99.90;;;;;;5075453;28;20235;-59
2022/12/16 02:04:25;;;;;;;21.23;13.80;;;-5.40;99.90;;;;;;5075216;28;20668;-60
2022/12/16 02:06:54;;;;;;;18.75;13.05;;;-5.40;99.90;;;;;;5075488;28;20211;-59
2022/12/16 02:09:21;;;;;;;21.65;14.13;;;-5.50;99.90;;;;;;5075285;28;20614;-60
2022/12/16 02:12:06;;;;;;;24.45;14.23;;;-5.50;99.90;;;;;;5074718;28;20239;-60
2022/12/16 02:14:57;;;;;;;16.35;13.35;;;-5.50;99.90;;;;;;5075303;28;20192;-59
2022/12/16 02:17:35;;;;;;;19.50;14.13;;;-5.50;99.90;;;;;;5075166;28;20193;-59
2022/12/16 02:20:33;;;;;;;21.70;12.82;;;-5.60;99.90;;;;;;5074893;28;22630;-59
2022/12/16 02:23:22;;;;;;;17.08;12.55;;;-5.60;99.90;;;;;;5047525;28;20213;-59
2022/12/16 02:26:12;;;;;;;25.67;14.02;;;-5.60;99.90;;;;;;5075041;28;20188;-59
2022/12/16 02:29:06;;;;;;;21.75;14.02;;;-5.60;99.90;;;;;;5074666;28;20676;-59
2022/12/16 02:31:43;;;;;;;18.80;12.75;;;-5.60;99.90;;;;;;5074743;28;20696;-60
2022/12/16 02:34:17;;;;;;;18.02;12.35;;;-5.60;99.90;;;;;;5075417;28;20197;-59
2022/12/16 02:36:57;;;;;;;20.10;12.98;;;-5.60;99.90;;;;;;5074710;28;20316;-60
2022/12/16 02:39:29;;;;;;;22.42;14.63;;;-5.60;99.90;;;;;;5074904;28;20192;-58
2022/12/16 02:42:03;;;;;;;20.67;14.13;;;-5.60;99.90;;;;;;5075398;28;20245;-60
2022/12/16 02:44:39;;;;;;;15.65;11.90;;;-5.50;99.90;;;;;;5074845;28;20185;-58
2022/12/16 02:47:08;;;;;;;19.05;12.63;;;-5.50;99.90;;;;;;5074722;28;20193;-58
2022/12/16 02:49:49;;;;;;;19.88;13.57;;;-5.50;99.90;;;;;;5074012;28;20251;-60
2022/12/16 02:52:19;;;;;;;21.73;13.63;;;-5.50;99.90;;;;;;5074934;28;20207;-60
2022/12/16 02:54:46;;;;;;;22.38;14.00;;;-5.60;99.90;;;;;;5075108;28;20209;-59
2022/12/16 02:57:36;;;;;;;21.50;12.73;;;-5.60;99.90;;;;;;5075287;28;20308;-60
2022/12/16 03:00:06;;;;;;;19.20;12.85;;;-5.60;99.90;;;;;;5072368;28;20232;-60
2022/12/16 03:02:42;;;;;;;24.38;14.35;;;-5.60;99.90;;;;;;5074435;28;20197;-59
2022/12/16 03:05:14;;;;;;;18.30;12.05;;;-5.70;99.90;;;;;;5074328;28;20181;-59
2022/12/16 03:07:44;;;;;;;21.40;12.98;;;-5.70;99.90;;;;;;5075097;28;20189;-59
2022/12/16 03:10:16;;;;;;;21.08;12.73;;;-5.70;99.90;;;;;;5073927;28;20316;-59
2022/12/16 03:12:45;;;;;;;24.88;15.20;;;-5.60;99.90;;;;;;5073648;28;20185;-58
2022/12/16 03:15:15;;;;;;;20.55;12.85;;;-5.60;99.90;;;;;;5073839;28;20231;-59
2022/12/16 03:17:46;;;;;;;19.75;13.40;;;-5.60;99.90;;;;;;5073645;28;20633;-58
2022/12/16 03:20:19;;;;;;;23.48;14.55;;;-5.60;99.90;;;;;;5073818;28;20231;-58
2022/12/16 03:22:51;;;;;;;20.20;13.65;;;-5.70;99.90;;;;;;5074352;28;20185;-58
2022/12/16 03:25:19;;;;;;;24.85;13.63;;;-5.70;99.90;;;;;;5073509;28;20182;-59
2022/12/16 03:27:55;;;;;;;27.02;13.85;;;-5.80;99.90;;;;;;5073538;28;20764;-59
2022/12/16 03:30:27;;;;;;;17.85;12.02;;;-5.80;99.90;;;;;;5073701;28;20227;-59
2022/12/16 03:33:01;;;;;;;23.52;12.95;;;-5.80;99.90;;;;;;5073274;28;20696;-58
2022/12/16 03:35:33;;;;;;;19.20;12.88;;;-5.80;99.90;;;;;;5073572;28;20278;-59
2022/12/16 03:38:03;;;;;;;20.27;13.10;;;-5.80;99.90;;;;;;5073248;28;20697;-59
2022/12/16 03:40:31;;;;;;;21.45;14.38;;;-5.80;99.90;;;;;;5073826;28;20290;-59
2022/12/16 03:43:00;;;;;;;15.65;12.75;;;-5.80;99.90;;;;;;5073384;28;20685;-59
2022/12/16 03:45:30;;;;;;;15.88;11.77;;;-5.80;99.90;;;;;;5073481;28;20193;-59
2022/12/16 03:47:59;;;;;;;19.40;13.52;;;-5.80;99.90;;;;;;5073445;28;20197;-60
2022/12/16 03:50:29;;;;;;;18.30;13.85;;;-5.80;99.90;;;;;;5073359;28;20221;-59
2022/12/16 03:52:56;;;;;;;21.60;13.57;;;-5.80;99.90;;;;;;5073429;28;20208;-59
2022/12/16 03:55:23;;;;;;;20.50;12.93;;;-5.80;99.90;;;;;;5072995;28;20719;-60
2022/12/16 03:57:50;;;;;;;21.13;14.13;;;-5.80;99.90;;;;;;5073418;28;20204;-60
2022/12/16 04:00:17;;;;;;;19.42;12.85;;;-5.90;99.90;;;;;;5073446;28;20498;-59
2022/12/16 04:02:44;;;;;;;21.80;14.52;;;-5.80;99.90;;;;;;5075011;28;20577;-60
2022/12/16 04:05:12;;;;;;;27.63;15.15;;;-5.90;99.90;;;;;;5074062;28;20235;-60
2022/12/16 04:24:22;;;;;;;23.08;13.93;;;-6.00;99.90;;;;;;5030661;28;20214;-62
2022/12/16 04:30:17;;;;;;;26.05;15.70;;;-6.00;99.90;;;;;;5035977;28;20233;-62
2022/12/16 04:34:24;;;;;;;19.30;13.77;;;-6.00;99.90;;;;;;5035601;28;20250;-61
